createdAt,value
2019-03-18T00:00:51.704Z,94822.61
2019-03-18T00:03:18.288Z,94821.88
2019-03-18T00:05:44.605Z,94823.30
2019-03-18T00:08:10.951Z,94823.75
2019-03-18T00:10:37.291Z,94822.23
2019-03-18T00:13:03.647Z,94824.58
2019-03-18T00:15:29.998Z,94824.22
2019-03-18T00:17:56.328Z,94825.50
2019-03-18T00:20:22.720Z,94819.91
2019-03-18T00:22:49.142Z,94823.75
2019-03-18T00:25:15.479Z,94825.86
2019-03-18T00:27:41.837Z,94826.91
2019-03-18T00:30:08.160Z,94817.56
2019-03-18T00:32:34.564Z,94822.56
2019-03-18T00:35:00.926Z,94821.77
2019-03-18T00:37:27.286Z,94821.19
2019-03-18T00:39:53.586Z,94825.13
2019-03-18T00:42:19.940Z,94817.56
2019-03-18T00:44:46.283Z,94815.81
2019-03-18T00:47:12.713Z,94822.33
2019-03-18T00:49:39.107Z,94820.13
2019-03-18T00:52:05.438Z,94818.84
2019-03-18T00:54:31.768Z,94810.91
2019-03-18T00:56:58.151Z,94814.27
2019-03-18T00:59:24.469Z,94809.71
2019-03-18T01:01:50.846Z,94800.64
2019-03-18T01:04:17.219Z,94804.72
2019-03-18T01:06:43.526Z,94801.55
2019-03-18T01:09:09.882Z,94802.09
2019-03-18T01:11:36.229Z,94800.11
2019-03-18T01:14:02.629Z,94791.49
2019-03-18T01:16:28.962Z,94798.70
2019-03-18T01:18:55.346Z,94799.89
2019-03-18T01:21:21.645Z,94794.17
2019-03-18T01:23:48.017Z,94800.37
2019-03-18T01:26:14.347Z,94800.03
2019-03-18T01:28:40.683Z,94799.59
2019-03-18T01:31:07.049Z,94786.39
2019-03-18T01:33:33.401Z,94785.47
2019-03-18T01:35:59.754Z,94788.04
2019-03-18T01:38:26.084Z,94784.33
2019-03-18T01:40:52.412Z,94785.70
2019-03-18T01:43:18.866Z,94787.36
2019-03-18T01:45:45.226Z,94791.45
2019-03-18T01:48:11.616Z,94793.65
2019-03-18T01:50:38.063Z,94794.70
2019-03-18T01:53:04.405Z,94790.86
2019-03-18T01:55:30.737Z,94790.75
2019-03-18T01:57:57.112Z,94794.48
2019-03-18T02:00:23.433Z,94799.52
2019-03-18T02:02:51.889Z,94804.05
2019-03-18T02:05:16.281Z,94801.48
2019-03-18T02:07:42.759Z,94805.11
2019-03-18T02:10:09.040Z,94803.47
2019-03-18T02:12:35.394Z,94791.12
2019-03-18T02:15:01.715Z,94799.39
2019-03-18T02:17:28.052Z,94802.31
2019-03-18T02:19:54.381Z,94809.89
2019-03-18T02:22:20.715Z,94808.75
2019-03-18T02:24:47.065Z,94808.88
2019-03-18T02:27:13.405Z,94815.63
2019-03-18T02:29:39.745Z,94820.88
2019-03-18T02:32:06.069Z,94828.05
2019-03-18T02:34:32.675Z,94817.20
2019-03-18T02:36:59.012Z,94811.13
2019-03-18T02:39:25.337Z,94809.50
2019-03-18T02:41:51.772Z,94811.72
2019-03-18T02:44:18.054Z,94818.00
2019-03-18T02:46:44.352Z,94823.63
2019-03-18T02:49:10.675Z,94808.83
2019-03-18T02:51:37.136Z,94812.78
2019-03-18T02:54:03.506Z,94815.81
2019-03-18T02:56:29.848Z,94818.73
2019-03-18T02:58:56.176Z,94821.53
2019-03-18T03:01:22.507Z,94825.63
2019-03-18T03:03:48.836Z,94817.82
2019-03-18T03:06:15.167Z,94823.52
2019-03-18T03:08:41.516Z,94823.06
2019-03-18T03:11:07.886Z,94818.05
2019-03-18T03:13:34.232Z,94820.41
2019-03-18T03:16:01.757Z,94830.89
2019-03-18T03:18:26.935Z,94832.77
2019-03-18T03:20:53.370Z,94830.67
2019-03-18T03:23:19.702Z,94834.75
2019-03-18T03:25:46.095Z,94836.63
2019-03-18T03:28:12.503Z,94837.45
2019-03-18T03:30:38.900Z,94836.86
2019-03-18T03:33:05.260Z,94840.84
2019-03-18T03:35:31.801Z,94837.91
2019-03-18T03:37:58.116Z,94841.04
2019-03-18T03:40:24.453Z,94850.30
2019-03-18T03:42:50.802Z,94843.42
2019-03-18T03:45:17.274Z,94835.95
2019-03-18T03:47:43.599Z,94845.16
2019-03-18T03:50:10.011Z,94840.25
2019-03-18T03:52:36.416Z,94839.80
2019-03-18T03:55:02.717Z,94844.09
2019-03-18T03:57:29.166Z,94849.02
2019-03-18T03:59:55.568Z,94847.22
2019-03-18T04:02:21.991Z,94845.86
2019-03-18T04:04:48.336Z,94840.86
2019-03-18T04:07:14.632Z,94834.81
2019-03-18T04:09:40.972Z,94836.56
2019-03-18T04:12:07.384Z,94843.59
2019-03-18T04:14:33.680Z,94835.33
2019-03-18T04:17:02.473Z,94840.01
2019-03-18T04:19:26.528Z,94840.25
2019-03-18T04:21:52.873Z,94840.97
2019-03-18T04:24:19.248Z,94845.75
2019-03-18T04:26:45.604Z,94844.59
2019-03-18T04:29:11.937Z,94841.56
2019-03-18T04:31:38.269Z,94843.21
2019-03-18T04:34:04.624Z,94850.10
2019-03-18T04:36:30.945Z,94853.66
2019-03-18T04:38:57.308Z,94855.17
2019-03-18T04:41:23.638Z,94850.72
2019-03-18T04:43:49.970Z,94858.47
2019-03-18T04:46:16.301Z,94869.31
2019-03-18T04:48:42.680Z,94863.48
2019-03-18T04:51:09.064Z,94868.19
2019-03-18T04:53:35.389Z,94866.77
2019-03-18T04:56:01.724Z,94869.10
2019-03-18T04:58:28.111Z,94866.42
2019-03-18T05:00:54.523Z,94875.55
2019-03-18T05:03:20.891Z,94872.37
2019-03-18T05:05:47.277Z,94866.19
2019-03-18T05:08:13.597Z,94863.14
2019-03-18T05:10:39.967Z,94874.14
2019-03-18T05:13:06.307Z,94884.78
2019-03-18T05:15:32.754Z,94892.28
2019-03-18T05:17:59.103Z,94888.16
2019-03-18T05:20:25.468Z,94882.53
2019-03-18T05:22:51.885Z,94889.80
2019-03-18T05:25:18.248Z,94889.19
2019-03-18T05:27:44.559Z,94897.47
2019-03-18T05:30:10.923Z,94891.14
2019-03-18T05:32:37.317Z,94898.49
2019-03-18T05:35:03.677Z,94898.61
2019-03-18T05:37:30.060Z,94900.94
2019-03-18T05:39:56.348Z,94889.78
2019-03-18T05:42:22.708Z,94891.89
2019-03-18T05:44:49.175Z,94888.81
2019-03-18T05:47:15.513Z,94894.33
2019-03-18T05:49:41.881Z,94888.56
2019-03-18T05:52:08.250Z,94885.27
2019-03-18T05:54:34.581Z,94881.79
2019-03-18T05:57:01.059Z,94883.77
2019-03-18T05:59:27.472Z,94879.53
2019-03-18T06:01:53.925Z,94883.72
2019-03-18T06:04:20.275Z,94875.56
2019-03-18T06:06:46.688Z,94868.97
2019-03-18T06:09:13.035Z,94869.28
2019-03-18T06:11:39.407Z,94863.42
2019-03-18T06:14:05.715Z,94856.04
2019-03-18T06:16:32.049Z,94863.99
2019-03-18T06:19:00.269Z,94859.64
2019-03-18T06:21:24.784Z,94864.39
2019-03-18T06:23:51.122Z,94864.39
2019-03-18T06:26:17.544Z,94865.98
2019-03-18T06:28:43.887Z,94862.73
2019-03-18T06:31:10.312Z,94862.88
2019-03-18T06:33:36.599Z,94868.91
2019-03-18T06:36:02.952Z,94872.78
2019-03-18T06:38:29.386Z,94871.84
2019-03-18T06:40:55.808Z,94865.89
2019-03-18T06:43:22.139Z,94864.44
2019-03-18T06:45:48.614Z,94871.63
2019-03-18T06:48:14.950Z,94868.56
2019-03-18T06:50:41.292Z,94864.59
2019-03-18T06:53:07.629Z,94874.44
2019-03-18T06:55:33.949Z,94869.97
2019-03-18T06:58:00.307Z,94878.60
2019-03-18T07:00:26.644Z,94879.29
2019-03-18T07:02:53.595Z,94879.44
2019-03-18T07:05:19.983Z,94876.23
2019-03-18T07:07:46.322Z,94874.57
2019-03-18T07:10:12.688Z,94879.79
2019-03-18T07:12:39.042Z,94881.45
2019-03-18T07:15:05.408Z,94880.79
2019-03-18T07:17:31.791Z,94863.20
2019-03-18T07:19:58.135Z,94874.25
2019-03-18T07:22:24.482Z,94877.02
2019-03-18T07:24:50.830Z,94870.91
2019-03-18T07:27:17.171Z,94868.84
2019-03-18T07:29:43.536Z,94870.17
2019-03-18T07:32:09.906Z,94879.77
2019-03-18T07:34:36.254Z,94874.01
2019-03-18T07:37:02.632Z,94871.37
2019-03-18T07:39:29.018Z,94868.72
2019-03-18T07:41:55.347Z,94866.59
2019-03-18T07:44:21.758Z,94860.16
2019-03-18T07:46:48.105Z,94859.52
2019-03-18T07:49:14.616Z,94864.37
2019-03-18T07:51:41.031Z,94856.00
2019-03-18T07:54:07.377Z,94852.12
2019-03-18T07:56:33.713Z,94847.11
2019-03-18T07:59:00.086Z,94840.62
2019-03-18T08:01:26.940Z,94839.41
2019-03-18T08:03:53.315Z,94833.39
2019-03-18T08:06:19.658Z,94829.95
2019-03-18T08:08:46.084Z,94832.34
2019-03-18T08:11:12.449Z,94826.54
2019-03-18T08:13:38.881Z,94827.41
2019-03-18T08:16:05.188Z,94824.00
2019-03-18T08:18:42.777Z,94817.89
2019-03-18T08:21:00.487Z,94817.77
2019-03-18T08:23:26.827Z,94822.75
2019-03-18T08:25:53.171Z,94823.52
2019-03-18T08:28:19.682Z,94821.00
2019-03-18T08:30:46.014Z,94817.35
2019-03-18T08:33:12.358Z,94821.33
2019-03-18T08:35:38.707Z,94814.28
2019-03-18T08:38:05.214Z,94812.61
2019-03-18T08:40:31.593Z,94810.60
2019-03-18T08:42:57.941Z,94817.59
2019-03-18T08:45:24.282Z,94809.20
2019-03-18T08:47:50.738Z,94806.46
2019-03-18T08:50:17.279Z,94806.19
2019-03-18T08:52:43.648Z,94801.66
2019-03-18T08:55:10.045Z,94795.66
2019-03-18T08:57:36.379Z,94788.63
2019-03-18T09:00:02.732Z,94792.12
2019-03-18T09:02:29.235Z,94796.88
2019-03-18T09:04:55.581Z,94794.55
2019-03-18T09:07:21.930Z,94790.42
2019-03-18T09:09:48.442Z,94794.82
2019-03-18T09:12:14.776Z,94795.16
2019-03-18T09:14:41.280Z,94794.34
2019-03-18T09:17:07.581Z,94786.23
2019-03-18T09:19:33.959Z,94784.30
2019-03-18T09:22:00.399Z,94782.37
2019-03-18T09:24:26.769Z,94783.97
2019-03-18T09:27:01.832Z,94791.08
2019-03-18T09:29:19.498Z,94781.52
2019-03-18T09:31:46.029Z,94779.55
2019-03-18T09:34:12.375Z,94784.67
2019-03-18T09:36:38.711Z,94774.72
2019-03-18T09:39:05.129Z,94775.86
2019-03-18T09:41:31.473Z,94769.75
2019-03-18T09:43:57.820Z,94774.06
2019-03-18T09:46:24.162Z,94771.22
2019-03-18T09:48:50.502Z,94775.73
2019-03-18T09:51:16.989Z,94771.69
2019-03-18T09:53:43.321Z,94765.97
2019-03-18T09:56:09.678Z,94764.47
2019-03-18T09:58:36.064Z,94765.86
2019-03-18T10:01:02.445Z,94757.36
2019-03-18T10:03:28.845Z,94760.29
2019-03-18T10:05:55.158Z,94752.56
2019-03-18T10:08:21.563Z,94749.98
2019-03-18T10:10:47.946Z,94747.94
2019-03-18T10:13:14.331Z,94746.77
2019-03-18T10:15:40.655Z,94742.73
2019-03-18T10:18:07.022Z,94737.62
2019-03-18T10:20:33.436Z,94740.82
2019-03-18T10:22:59.776Z,94738.50
2019-03-18T10:25:26.153Z,94737.16
2019-03-18T10:27:53.553Z,94730.97
2019-03-18T10:30:19.914Z,94728.02
2019-03-18T10:32:46.247Z,94728.56
2019-03-18T10:35:12.630Z,94723.34
2019-03-18T10:37:38.976Z,94725.02
2019-03-18T10:40:05.309Z,94711.30
2019-03-18T10:42:31.719Z,94714.14
2019-03-18T10:44:58.093Z,94707.55
2019-03-18T10:47:24.432Z,94704.84
2019-03-18T10:49:50.792Z,94700.02
2019-03-18T10:52:17.167Z,94697.87
2019-03-18T10:54:43.499Z,94689.04
2019-03-18T10:57:09.835Z,94688.36
2019-03-18T10:59:36.288Z,94688.67
2019-03-18T11:02:02.630Z,94685.37
2019-03-18T11:04:29.028Z,94674.46
2019-03-18T11:06:55.410Z,94679.08
2019-03-18T11:09:21.842Z,94671.19
2019-03-18T11:11:48.095Z,94668.33
2019-03-18T11:14:14.507Z,94664.81
2019-03-18T11:16:40.894Z,94653.94
2019-03-18T11:19:07.245Z,94653.83
2019-03-18T11:21:35.831Z,94640.48
2019-03-18T11:24:02.194Z,94641.86
2019-03-18T11:26:28.537Z,94636.03
2019-03-18T11:28:55.102Z,94639.28
2019-03-18T11:31:21.459Z,94631.66
2019-03-18T11:33:47.804Z,94631.14
2019-03-18T11:36:14.214Z,94624.67
2019-03-18T11:38:40.647Z,94617.88
2019-03-18T11:41:07.025Z,94620.55
2019-03-18T11:43:33.487Z,94614.36
2019-03-18T11:45:59.845Z,94611.51
2019-03-18T11:48:26.202Z,94610.14
2019-03-18T11:50:52.556Z,94606.55
2019-03-18T11:53:19.024Z,94608.50
2019-03-18T11:55:45.373Z,94597.36
2019-03-18T11:58:11.806Z,94589.97
2019-03-18T12:00:38.222Z,94595.88
2019-03-18T12:03:04.647Z,94590.09
2019-03-18T12:05:31.048Z,94591.41
2019-03-18T12:07:57.375Z,94578.83
2019-03-18T12:10:25.654Z,94574.41
2019-03-18T12:12:50.130Z,94572.18
2019-03-18T12:15:16.490Z,94565.80
2019-03-18T12:17:43.833Z,94562.05
2019-03-18T12:20:23.572Z,94558.37
2019-03-18T12:22:38.532Z,94558.45
2019-03-18T12:25:04.897Z,94552.75
2019-03-18T12:27:31.277Z,94554.86
2019-03-18T12:29:57.817Z,94545.47
2019-03-18T12:32:24.195Z,94542.50
2019-03-18T12:34:50.521Z,94542.15
2019-03-18T12:37:16.909Z,94542.23
2019-03-18T12:39:43.241Z,94540.31
2019-03-18T12:42:09.615Z,94534.69
2019-03-18T12:44:36.079Z,94527.91
2019-03-18T12:47:02.442Z,94524.36
2019-03-18T12:49:28.836Z,94524.17
2019-03-18T12:51:55.205Z,94526.20
2019-03-18T12:54:21.550Z,94520.42
2019-03-18T12:56:47.900Z,94509.89
2019-03-18T12:59:14.271Z,94504.66
2019-03-18T13:01:40.649Z,94502.70
2019-03-18T13:04:07.043Z,94500.82
2019-03-18T13:06:33.733Z,94497.41
2019-03-18T13:08:59.812Z,94493.84
2019-03-18T13:11:26.298Z,94491.83
2019-03-18T13:13:52.680Z,94488.66
2019-03-18T13:16:19.033Z,94489.53
2019-03-18T13:18:45.390Z,94488.23
2019-03-18T13:21:11.765Z,94488.02
2019-03-18T13:23:38.124Z,94485.38
2019-03-18T13:26:04.473Z,94477.11
2019-03-18T13:28:30.845Z,94480.02
2019-03-18T13:30:57.144Z,94482.06
2019-03-18T13:33:23.526Z,94482.20
2019-03-18T13:35:50.096Z,94481.29
2019-03-18T13:38:16.598Z,94484.08
2019-03-18T13:40:45.863Z,94480.58
2019-03-18T13:43:09.805Z,94478.06
2019-03-18T13:45:36.267Z,94479.08
2019-03-18T13:48:02.695Z,94473.48
2019-03-18T13:50:29.171Z,94470.64
2019-03-18T13:52:55.743Z,94470.75
2019-03-18T13:55:22.176Z,94465.48
2019-03-18T13:57:48.738Z,94463.01
2019-03-18T14:00:15.225Z,94460.17
2019-03-18T14:02:41.665Z,94459.20
2019-03-18T14:05:08.493Z,94454.63
2019-03-18T14:07:35.119Z,94455.67
2019-03-18T14:10:01.859Z,94454.47
2019-03-18T14:12:29.929Z,94454.34
2019-03-18T14:14:56.535Z,94458.47
2019-03-18T14:17:22.990Z,94456.45
2019-03-18T14:19:49.433Z,94456.04
2019-03-18T14:22:16.295Z,94453.06
2019-03-18T14:24:43.376Z,94456.45
2019-03-18T14:27:12.023Z,94450.88
2019-03-18T14:29:38.734Z,94446.66
2019-03-18T14:32:05.376Z,94445.27
2019-03-18T14:34:31.723Z,94446.75
2019-03-18T14:36:58.057Z,94444.98
2019-03-18T14:39:24.410Z,94438.41
2019-03-18T14:41:50.816Z,94449.45
2019-03-18T14:44:17.192Z,94447.09
2019-03-18T14:46:43.631Z,94451.25
2019-03-18T14:49:09.991Z,94450.17
2019-03-18T14:51:45.397Z,94446.64
2019-03-18T14:54:02.815Z,94449.91
2019-03-18T14:56:29.109Z,94445.41
2019-03-18T14:58:55.547Z,94445.36
2019-03-18T15:01:21.942Z,94442.91
2019-03-18T15:03:48.290Z,94450.92
2019-03-18T15:06:14.698Z,94449.73
2019-03-18T15:08:41.173Z,94450.98
2019-03-18T15:11:07.579Z,94450.08
2019-03-18T15:13:33.923Z,94449.42
2019-03-18T15:16:00.356Z,94452.13
2019-03-18T15:18:26.695Z,94453.29
2019-03-18T15:20:53.190Z,94455.13
2019-03-18T15:23:19.542Z,94460.28
2019-03-18T15:25:45.921Z,94462.52
2019-03-18T15:28:12.457Z,94461.14
2019-03-18T15:30:38.869Z,94466.23
2019-03-18T15:33:05.212Z,94463.17
2019-03-18T15:35:31.728Z,94461.30
2019-03-18T15:37:58.058Z,94460.13
2019-03-18T15:40:24.634Z,94469.16
2019-03-18T15:42:51.044Z,94465.64
2019-03-18T15:45:17.392Z,94464.34
2019-03-18T15:47:43.840Z,94471.14
2019-03-18T15:50:12.852Z,94473.84
2019-03-18T15:52:36.513Z,94476.90
2019-03-18T15:55:02.908Z,94482.95
2019-03-18T15:57:30.036Z,94485.46
2019-03-18T15:59:55.591Z,94489.94
2019-03-18T16:02:21.913Z,94486.54
2019-03-18T16:04:48.250Z,94493.46
2019-03-18T16:07:14.584Z,94499.72
2019-03-18T16:09:40.954Z,94497.20
2019-03-18T16:12:07.329Z,94497.96
2019-03-18T16:14:33.717Z,94499.18
2019-03-18T16:17:02.281Z,94499.11
2019-03-18T16:19:26.431Z,94502.51
2019-03-18T16:21:52.769Z,94503.61
2019-03-18T16:24:19.116Z,94505.75
2019-03-18T16:26:45.464Z,94510.09
2019-03-18T16:29:11.800Z,94513.50
2019-03-18T16:31:38.193Z,94517.64
2019-03-18T16:34:04.523Z,94514.66
2019-03-18T16:36:30.930Z,94514.94
2019-03-18T16:38:57.306Z,94514.59
2019-03-18T16:41:23.634Z,94521.31
2019-03-18T16:43:49.979Z,94525.11
2019-03-18T16:46:16.358Z,94519.20
2019-03-18T16:48:42.753Z,94523.27
2019-03-18T16:51:09.065Z,94525.58
2019-03-18T16:53:35.395Z,94530.23
2019-03-18T16:56:01.728Z,94526.87
2019-03-18T16:58:28.111Z,94532.38
2019-03-18T17:00:54.482Z,94536.87
2019-03-18T17:03:20.851Z,94534.69
2019-03-18T17:05:47.190Z,94539.26
2019-03-18T17:08:13.533Z,94540.20
2019-03-18T17:10:39.863Z,94547.31
2019-03-18T17:13:06.206Z,94537.89
2019-03-18T17:15:32.545Z,94545.98
2019-03-18T17:17:58.957Z,94543.87
2019-03-18T17:20:25.310Z,94554.47
2019-03-18T17:22:51.810Z,94553.72
2019-03-18T17:25:18.106Z,94562.67
2019-03-18T17:27:44.456Z,94565.73
2019-03-18T17:30:10.821Z,94565.73
2019-03-18T17:32:37.249Z,94568.11
2019-03-18T17:35:03.574Z,94568.94
2019-03-18T17:37:29.850Z,94573.63
2019-03-18T17:39:56.242Z,94577.97
2019-03-18T17:42:22.578Z,94578.92
2019-03-18T17:44:48.903Z,94584.27
2019-03-18T17:47:15.256Z,94589.26
2019-03-18T17:49:41.610Z,94586.66
2019-03-18T17:52:07.988Z,94589.70
2019-03-18T17:54:34.347Z,94596.26
2019-03-18T17:57:07.289Z,94600.25
2019-03-18T17:59:27.116Z,94605.14
2019-03-18T18:01:53.462Z,94608.09
2019-03-18T18:04:19.795Z,94612.99
2019-03-18T18:06:46.210Z,94613.05
2019-03-18T18:09:12.572Z,94618.59
2019-03-18T18:11:38.949Z,94620.70
2019-03-18T18:14:06.535Z,94618.17
2019-03-18T18:16:31.632Z,94625.00
2019-03-18T18:18:58.042Z,94628.30
2019-03-18T18:21:24.412Z,94620.20
2019-03-18T18:23:50.755Z,94619.58
2019-03-18T18:26:17.117Z,94621.48
2019-03-18T18:28:43.487Z,94622.68
2019-03-18T18:31:09.834Z,94617.79
2019-03-18T18:33:36.167Z,94613.31
2019-03-18T18:36:02.539Z,94611.69
2019-03-18T18:38:28.900Z,94617.30
2019-03-18T18:40:55.556Z,94612.73
2019-03-18T18:43:21.892Z,94614.07
2019-03-18T18:45:48.231Z,94612.58
2019-03-18T18:48:14.568Z,94612.20
2019-03-18T18:50:40.894Z,94609.98
2019-03-18T18:53:07.226Z,94611.63
2019-03-18T18:55:33.558Z,94618.61
2019-03-18T18:57:59.912Z,94619.80
2019-03-18T19:00:26.284Z,94623.09
2019-03-18T19:02:52.683Z,94624.23
2019-03-18T19:05:19.082Z,94627.48
2019-03-18T19:07:45.435Z,94630.30
2019-03-18T19:10:11.790Z,94629.80
2019-03-18T19:12:38.158Z,94629.85
2019-03-18T19:15:04.518Z,94639.64
2019-03-18T19:17:30.921Z,94642.41
2019-03-18T19:19:57.333Z,94646.55
2019-03-18T19:22:23.664Z,94652.22
2019-03-18T19:24:50.126Z,94652.41
2019-03-18T19:27:16.664Z,94655.25
2019-03-18T19:29:43.011Z,94646.48
2019-03-18T19:32:09.347Z,94651.29
2019-03-18T19:34:35.705Z,94645.46
2019-03-18T19:37:01.991Z,94647.57
2019-03-18T19:39:28.325Z,94650.73
2019-03-18T19:41:54.740Z,94664.44
2019-03-18T19:44:21.090Z,94668.19
2019-03-18T19:46:47.403Z,94669.59
2019-03-18T19:49:13.717Z,94675.20
2019-03-18T19:51:40.056Z,94674.50
2019-03-18T19:54:06.501Z,94673.68
2019-03-18T19:56:32.848Z,94675.91
2019-03-18T19:58:59.170Z,94680.84
2019-03-18T20:01:25.500Z,94681.67
2019-03-18T20:03:51.866Z,94679.77
2019-03-18T20:06:18.219Z,94677.28
2019-03-18T20:08:44.546Z,94693.16
2019-03-18T20:11:10.920Z,94692.55
2019-03-18T20:13:37.353Z,94695.13
2019-03-18T20:16:03.660Z,94694.71
2019-03-18T20:18:30.111Z,94698.46
2019-03-18T20:20:57.054Z,94705.27
2019-03-18T20:23:22.976Z,94712.06
2019-03-18T20:25:49.351Z,94705.63
2019-03-18T20:28:15.712Z,94709.13
2019-03-18T20:30:42.053Z,94713.72
2019-03-18T20:33:08.386Z,94712.58
2019-03-18T20:35:34.783Z,94716.91
2019-03-18T20:38:01.174Z,94716.95
2019-03-18T20:40:27.605Z,94719.16
2019-03-18T20:42:53.959Z,94721.73
2019-03-18T20:45:20.288Z,94723.35
2019-03-18T20:47:46.642Z,94721.73
2019-03-18T20:50:12.982Z,94719.63
2019-03-18T20:52:39.320Z,94724.42
2019-03-18T20:55:05.692Z,94729.15
2019-03-18T20:57:31.984Z,94735.23
2019-03-18T20:59:58.874Z,94737.59
2019-03-18T21:02:25.205Z,94739.92
2019-03-18T21:04:51.535Z,94746.96
2019-03-18T21:07:17.862Z,94751.54
2019-03-18T21:09:44.192Z,94749.18
2019-03-18T21:12:10.520Z,94756.19
2019-03-18T21:14:37.052Z,94756.83
2019-03-18T21:17:03.385Z,94749.22
2019-03-18T21:19:29.751Z,94755.08
2019-03-18T21:21:56.087Z,94763.48
2019-03-18T21:24:23.685Z,94758.94
2019-03-18T21:26:48.859Z,94766.31
2019-03-18T21:29:15.224Z,94770.06
2019-03-18T21:31:41.540Z,94774.28
2019-03-18T21:34:07.919Z,94775.35
2019-03-18T21:36:38.230Z,94772.09
2019-03-18T21:39:00.588Z,94778.88
2019-03-18T21:41:27.302Z,94771.08
2019-03-18T21:43:53.283Z,94765.89
2019-03-18T21:46:19.629Z,94772.72
2019-03-18T21:48:45.958Z,94773.53
2019-03-18T21:51:12.297Z,94778.67
2019-03-18T21:53:38.623Z,94777.38
2019-03-18T21:56:04.992Z,94776.23
2019-03-18T21:58:33.032Z,94779.28
2019-03-18T22:00:57.684Z,94769.70
2019-03-18T22:03:24.054Z,94772.86
2019-03-18T22:05:50.379Z,94772.98
2019-03-18T22:08:16.722Z,94775.66
2019-03-18T22:10:43.068Z,94777.08
2019-03-18T22:13:09.478Z,94782.58
2019-03-18T22:15:35.885Z,94775.57
2019-03-18T22:18:02.240Z,94776.96
2019-03-18T22:20:28.573Z,94779.31
2019-03-18T22:22:54.920Z,94782.93
2019-03-18T22:25:21.271Z,94781.30
2019-03-18T22:27:47.666Z,94779.91
2019-03-18T22:30:14.032Z,94782.69
2019-03-18T22:32:40.461Z,94785.63
2019-03-18T22:35:06.816Z,94777.78
2019-03-18T22:37:33.169Z,94781.88
2019-03-18T22:39:59.497Z,94787.15
2019-03-18T22:42:25.951Z,94791.48
2019-03-18T22:44:52.223Z,94782.25
2019-03-18T22:47:18.612Z,94789.74
2019-03-18T22:49:44.892Z,94796.48
2019-03-18T22:52:11.388Z,94801.06
2019-03-18T22:54:37.582Z,94803.53
2019-03-18T22:57:03.913Z,94807.25
2019-03-18T22:59:30.264Z,94804.68
2019-03-18T23:01:57.968Z,94799.77
2019-03-18T23:04:23.036Z,94807.14
2019-03-18T23:06:49.314Z,94808.68
2019-03-18T23:09:15.673Z,94813.34
2019-03-18T23:11:42.005Z,94819.30
2019-03-18T23:14:08.351Z,94820.36
2019-03-18T23:16:34.719Z,94826.88
2019-03-18T23:19:01.117Z,94829.00
2019-03-18T23:21:27.568Z,94821.75
2019-03-18T23:23:53.827Z,94832.16
2019-03-18T23:26:20.225Z,94830.41
2019-03-18T23:28:46.492Z,94837.88
2019-03-18T23:31:12.878Z,94836.02
2019-03-18T23:33:39.149Z,94845.25
2019-03-18T23:36:05.510Z,94844.53
2019-03-18T23:38:31.844Z,94840.80
2019-03-18T23:40:58.280Z,94843.84
2019-03-18T23:43:24.598Z,94844.59
2019-03-18T23:45:50.971Z,94845.88
2019-03-18T23:48:17.297Z,94843.67
2019-03-18T23:50:43.721Z,94841.92
2019-03-18T23:53:10.054Z,94852.91
2019-03-18T23:55:36.464Z,94849.37
2019-03-18T23:58:02.751Z,94851.25
